createdAt,value
2022-12-19T00:04:07.539Z,13.50
2022-12-19T00:09:29.766Z,12.18
2022-12-19T00:14:53.990Z,11.15
2022-12-19T00:20:18.724Z,11.68
2022-12-19T00:25:40.572Z,9.20
2022-12-19T00:31:04.404Z,11.02
2022-12-19T00:36:33.924Z,18.30
2022-12-19T00:41:55.698Z,10.23
2022-12-19T00:47:17.560Z,10.98
2022-12-19T00:52:39.354Z,8.55
2022-12-19T00:58:01.142Z,10.65
2022-12-19T01:03:23.556Z,9.00
2022-12-19T01:08:45.510Z,9.10
2022-12-19T01:14:07.346Z,9.85
2022-12-19T01:19:29.282Z,10.57
2022-12-19T01:24:51.175Z,9.65
2022-12-19T01:30:13.287Z,9.65
2022-12-19T01:35:36.388Z,10.90
2022-12-19T01:40:58.292Z,10.02
2022-12-19T01:46:43.571Z,9.40
2022-12-19T01:52:08.902Z,10.80
2022-12-19T01:57:33.747Z,10.30
2022-12-19T02:03:27.851Z,12.15
2022-12-19T02:08:51.156Z,12.68
2022-12-19T02:14:13.223Z,12.10
2022-12-19T02:20:03.033Z,11.63
2022-12-19T02:25:43.701Z,15.80
2022-12-19T02:31:08.184Z,12.93
2022-12-19T02:36:50.810Z,11.38
2022-12-19T02:42:25.158Z,15.05
2022-12-19T02:47:49.570Z,13.63
2022-12-19T02:53:13.369Z,14.98
2022-12-19T02:58:56.524Z,15.23
2022-12-19T03:04:30.505Z,13.00
2022-12-19T03:09:56.784Z,13.30
2022-12-19T03:15:19.995Z,16.33
2022-12-19T03:20:51.977Z,13.68
2022-12-19T03:26:22.568Z,14.90
2022-12-19T03:31:46.363Z,16.65
2022-12-19T03:37:14.376Z,16.05
2022-12-19T03:42:39.608Z,13.15
2022-12-19T03:48:09.983Z,13.45
2022-12-19T03:53:34.486Z,14.23
2022-12-19T03:59:04.836Z,18.02
2022-12-19T04:04:27.372Z,12.63
2022-12-19T04:09:50.645Z,14.88
2022-12-19T04:15:12.980Z,15.90
2022-12-19T04:20:38.114Z,17.55
2022-12-19T04:26:03.411Z,14.15
2022-12-19T04:31:25.419Z,16.98
2022-12-19T04:36:48.953Z,16.23
2022-12-19T04:42:10.889Z,15.55
2022-12-19T04:47:32.791Z,10.48
2022-12-19T04:52:57.210Z,15.27
2022-12-19T04:58:22.023Z,15.70
2022-12-19T05:03:44.169Z,16.17
2022-12-19T05:09:06.167Z,15.77
2022-12-19T05:14:28.017Z,17.67
2022-12-19T05:19:49.836Z,15.68
2022-12-19T05:25:11.634Z,16.55
2022-12-19T05:30:33.432Z,13.38
2022-12-19T05:35:55.261Z,13.57
2022-12-19T05:41:19.641Z,16.35
2022-12-19T05:46:41.548Z,16.63
2022-12-19T05:52:03.480Z,20.15
2022-12-19T05:57:25.447Z,16.25
2022-12-19T06:02:47.410Z,12.82
2022-12-19T06:08:09.265Z,17.48
2022-12-19T06:13:32.142Z,18.38
2022-12-19T06:18:54.669Z,15.93
2022-12-19T06:24:16.891Z,17.63
2022-12-19T06:29:38.696Z,16.10
2022-12-19T06:35:04.572Z,17.60
2022-12-19T06:40:26.831Z,14.10
2022-12-19T06:45:49.017Z,16.83
2022-12-19T06:51:10.857Z,16.92
2022-12-19T06:56:36.786Z,15.95
2022-12-19T07:02:18.473Z,16.25
2022-12-19T07:07:40.396Z,20.17
2022-12-19T07:13:02.269Z,18.77
2022-12-19T07:18:24.184Z,19.52
2022-12-19T07:23:46.337Z,17.13
2022-12-19T07:29:10.477Z,15.40
2022-12-19T07:34:33.750Z,16.77
2022-12-19T07:39:55.599Z,15.10
2022-12-19T07:45:17.469Z,18.27
2022-12-19T07:50:39.317Z,16.88
2022-12-19T07:56:01.088Z,19.77
2022-12-19T08:01:23.085Z,18.52
2022-12-19T08:06:45.013Z,16.73
2022-12-19T08:12:07.182Z,18.02
2022-12-19T08:17:29.084Z,19.98
2022-12-19T08:22:50.940Z,19.70
2022-12-19T08:28:12.803Z,17.30
2022-12-19T08:33:35.011Z,19.73
2022-12-19T08:38:56.860Z,17.10
2022-12-19T08:44:18.901Z,18.63
2022-12-19T08:49:40.776Z,21.08
2022-12-19T08:55:02.826Z,19.38
2022-12-19T09:00:24.835Z,20.10
2022-12-19T09:06:03.880Z,18.95
2022-12-19T09:11:28.773Z,20.00
2022-12-19T09:16:50.934Z,18.60
2022-12-19T09:22:12.901Z,19.20
2022-12-19T09:28:01.354Z,19.30
2022-12-19T09:33:16.527Z,18.20
2022-12-19T09:38:38.394Z,16.42
2022-12-19T09:44:15.635Z,18.98
2022-12-19T09:49:43.172Z,17.27
2022-12-19T09:55:24.156Z,14.02
2022-12-19T10:00:59.546Z,14.50
2022-12-19T10:07:12.934Z,14.65
2022-12-19T10:12:45.911Z,15.63
2022-12-19T10:18:13.058Z,16.95
2022-12-19T10:24:06.183Z,15.93
2022-12-19T10:29:50.037Z,16.65
2022-12-19T10:35:14.559Z,16.67
2022-12-19T10:40:49.197Z,13.88
2022-12-19T10:46:17.411Z,15.18
2022-12-19T10:51:39.707Z,14.10
2022-12-19T10:57:27.206Z,15.77
2022-12-19T11:02:51.908Z,13.80
2022-12-19T11:08:20.957Z,15.57
2022-12-19T11:18:35.186Z,15.50
2022-12-19T11:29:41.907Z,16.30
2022-12-19T11:30:59.587Z,16.17
2022-12-19T11:37:06.804Z,14.82
2022-12-19T11:42:37.283Z,16.45
2022-12-19T11:48:08.885Z,15.43
2022-12-19T11:53:40.913Z,15.27
2022-12-19T11:59:18.702Z,16.00
2022-12-19T12:05:08.120Z,16.08
2022-12-19T12:15:06.897Z,14.65
2022-12-19T12:28:01.879Z,15.52
2022-12-19T12:31:07.145Z,15.18
2022-12-19T12:31:42.621Z,13.75
2022-12-19T12:35:46.563Z,15.68
2022-12-19T12:40:58.509Z,15.48
2022-12-19T12:46:26.230Z,18.40
2022-12-19T12:51:49.119Z,16.95
2022-12-19T12:57:39.989Z,15.70
2022-12-19T13:03:07.116Z,15.88
2022-12-19T13:08:38.034Z,16.73
2022-12-19T13:14:00.744Z,17.25
2022-12-19T13:19:29.090Z,15.02
2022-12-19T13:24:53.229Z,14.40
2022-12-19T13:30:16.735Z,18.10
2022-12-19T13:39:04.835Z,16.90
2022-12-19T13:41:39.660Z,15.52
2022-12-19T13:47:01.510Z,14.70
2022-12-19T13:52:23.324Z,16.85
2022-12-19T13:57:53.580Z,14.93
2022-12-19T14:03:20.953Z,17.23
2022-12-19T14:08:45.733Z,17.50
2022-12-19T14:14:25.534Z,16.90
2022-12-19T14:19:52.635Z,13.82
2022-12-19T14:28:15.783Z,14.85
2022-12-19T14:31:25.908Z,16.42
2022-12-19T14:36:52.478Z,17.38
2022-12-19T14:42:16.685Z,16.15
2022-12-19T14:54:04.969Z,21.38
2022-12-19T14:54:22.085Z,17.40
2022-12-19T14:59:05.708Z,18.88
2022-12-19T15:04:53.009Z,19.65
2022-12-19T15:11:05.552Z,16.60
2022-12-19T15:16:02.318Z,18.92
2022-12-19T15:21:24.808Z,17.25
2022-12-19T15:26:50.218Z,17.00
2022-12-19T15:32:16.430Z,19.95
2022-12-19T15:37:38.291Z,19.10
2022-12-19T15:43:00.617Z,20.23
2022-12-19T15:48:22.581Z,17.55
2022-12-19T15:53:44.469Z,20.17
2022-12-19T15:59:21.501Z,20.00
2022-12-19T16:04:44.515Z,19.83
2022-12-19T16:10:07.370Z,20.38
2022-12-19T16:15:31.949Z,18.92
2022-12-19T16:20:55.773Z,20.23
2022-12-19T16:26:33.654Z,19.10
2022-12-19T16:31:55.913Z,20.17
2022-12-19T16:37:17.908Z,17.95
2022-12-19T16:42:39.790Z,20.00
2022-12-19T16:48:01.576Z,17.65
2022-12-19T16:53:23.542Z,19.63
2022-12-19T16:58:45.412Z,20.45
2022-12-19T17:04:07.228Z,19.25
2022-12-19T17:09:29.062Z,19.83
2022-12-19T17:14:50.928Z,21.60
2022-12-19T17:20:21.403Z,19.52
2022-12-19T17:25:43.811Z,19.88
2022-12-19T17:31:24.157Z,20.00
2022-12-19T17:36:46.254Z,21.98
2022-12-19T17:42:18.435Z,19.67
2022-12-19T17:47:40.608Z,19.67
2022-12-19T17:53:02.480Z,22.08
2022-12-19T17:58:24.347Z,20.80
2022-12-19T18:03:47.296Z,19.92
2022-12-19T18:09:24.096Z,19.30
2022-12-19T18:14:46.011Z,21.05
2022-12-19T18:20:32.034Z,21.50
2022-12-19T18:26:00.925Z,22.67
2022-12-19T18:31:25.826Z,21.27
2022-12-19T18:36:48.530Z,21.88
2022-12-19T18:42:20.635Z,22.23
2022-12-19T18:47:49.735Z,20.85
2022-12-19T18:53:15.747Z,23.55
2022-12-19T18:58:37.765Z,24.10
2022-12-19T19:03:59.732Z,21.67
2022-12-19T19:09:21.869Z,20.23
2022-12-19T19:14:44.296Z,22.27
2022-12-19T19:20:06.974Z,23.20
2022-12-19T19:25:28.805Z,22.65
2022-12-19T19:30:52.141Z,24.08
2022-12-19T19:36:23.076Z,20.33
2022-12-19T19:41:44.938Z,25.08
2022-12-19T19:47:06.919Z,22.58
2022-12-19T19:52:28.745Z,22.95
2022-12-19T19:57:50.695Z,24.27
2022-12-19T20:03:18.562Z,24.50
2022-12-19T20:08:44.197Z,22.63
2022-12-19T20:14:06.061Z,25.25
2022-12-19T20:19:27.985Z,24.30
2022-12-19T20:24:49.852Z,25.67
2022-12-19T20:30:12.086Z,24.00
2022-12-19T20:35:33.926Z,26.13
2022-12-19T20:40:55.776Z,22.75
2022-12-19T20:46:20.272Z,24.85
2022-12-19T20:51:42.215Z,23.08
2022-12-19T20:57:04.000Z,23.52
2022-12-19T21:02:25.937Z,22.40
2022-12-19T21:07:47.828Z,25.23
2022-12-19T21:13:09.638Z,24.98
2022-12-19T21:18:31.544Z,25.13
2022-12-19T21:23:54.904Z,24.98
2022-12-19T21:29:16.757Z,25.52
2022-12-19T21:34:38.603Z,24.25
2022-12-19T21:40:00.506Z,25.20
2022-12-19T21:45:22.319Z,22.63
2022-12-19T21:50:44.213Z,20.35
2022-12-19T21:56:12.268Z,24.40
2022-12-19T22:01:34.282Z,23.30
2022-12-19T22:06:56.267Z,26.02
2022-12-19T22:12:18.126Z,25.70
2022-12-19T22:17:39.948Z,24.40
2022-12-19T22:23:01.773Z,24.85
2022-12-19T22:28:23.609Z,24.38
2022-12-19T22:33:46.442Z,25.17
2022-12-19T22:39:13.573Z,23.65
2022-12-19T22:44:35.469Z,25.63
2022-12-19T22:49:57.420Z,24.45
2022-12-19T22:55:19.312Z,22.23
2022-12-19T23:00:42.244Z,24.35
2022-12-19T23:06:04.221Z,21.42
2022-12-19T23:11:33.187Z,22.88
2022-12-19T23:16:55.139Z,23.05
2022-12-19T23:22:17.043Z,23.13
2022-12-19T23:27:40.386Z,23.05
2022-12-19T23:33:02.382Z,22.05
2022-12-19T23:38:24.219Z,21.33
2022-12-19T23:43:46.160Z,23.02
2022-12-19T23:49:08.173Z,22.80
2022-12-19T23:54:30.273Z,23.42
2022-12-19T23:59:52.172Z,21.00
